Time;durP1;ratioP1;P1;durP2;ratioP2;P2;SDS_P1;SDS_P2;PMS_P1;PMS_P2;Temp;Humidity;BMP_temperature;BMP_pressure;BME280_temperature;BME280_humidity;BME280_pressure;Samples;Min_cycle;Max_cycle;Signal;HPM_P1;HPM_P2
2024/03/14 00:03:08;;;;;;;12.07;10.70;;;9.00;99.90;;;9.64;100.00;98007.38;10396350;28;20374;-66
2024/03/14 00:08:11;;;;;;;12.10;10.80;;;9.00;99.90;;;9.68;100.00;98009.34;10415402;28;20240;-66
2024/03/14 00:13:15;;;;;;;12.45;10.40;;;9.00;99.90;;;9.67;100.00;98003.34;10417972;28;20310;-68
2024/03/14 00:18:19;;;;;;;11.48;10.27;;;9.00;99.90;;;9.61;100.00;97996.97;10399295;28;21066;-67
2024/03/14 00:23:23;;;;;;;11.55;10.00;;;9.00;99.90;;;9.58;100.00;98000.19;10419383;28;20241;-68
2024/03/14 00:28:26;;;;;;;13.35;11.05;;;9.00;99.90;;;9.61;100.00;97990.19;10403154;28;21763;-67
2024/03/14 00:33:31;;;;;;;10.82;9.63;;;9.00;99.90;;;9.69;100.00;97989.00;10417473;28;20235;-69
2024/03/14 00:38:34;;;;;;;10.30;8.57;;;9.00;99.90;;;9.63;100.00;97977.53;10419087;28;20240;-69
2024/03/14 00:43:38;;;;;;;10.55;9.48;;;8.90;99.90;;;9.51;100.00;97976.78;10417994;28;20340;-65
2024/03/14 00:48:41;;;;;;;15.80;11.60;;;8.80;99.90;;;9.52;100.00;97976.84;10400166;28;20604;-68
2024/03/14 00:53:45;;;;;;;12.48;10.25;;;8.90;99.90;;;9.54;100.00;97971.88;10400076;28;20883;-68
2024/03/14 00:58:48;;;;;;;13.82;11.23;;;8.90;99.90;;;9.60;100.00;97979.91;10415151;28;20722;-67
2024/03/14 01:03:52;;;;;;;12.68;10.82;;;8.90;99.90;;;9.58;100.00;97971.25;10400164;28;20726;-68
2024/03/14 01:08:56;;;;;;;12.45;10.40;;;8.90;99.90;;;9.53;100.00;97962.44;10414063;28;20227;-68
2024/03/14 01:13:59;;;;;;;13.30;10.32;;;8.90;99.90;;;9.45;100.00;97955.19;10399795;28;20235;-66
2024/03/14 01:19:02;;;;;;;11.02;9.50;;;8.80;99.90;;;9.46;100.00;97945.88;10338344;23;20233;-68
2024/03/14 01:24:06;;;;;;;14.77;12.15;;;8.80;99.90;;;9.38;100.00;97942.81;10308166;28;20733;-67
2024/03/14 01:29:10;;;;;;;14.75;12.25;;;8.80;99.90;;;9.43;100.00;97941.44;10320660;28;20235;-69
2024/03/14 01:34:14;;;;;;;16.20;12.40;;;8.80;99.90;;;9.34;100.00;97942.56;10290230;28;20223;-70
2024/03/14 01:39:17;;;;;;;15.27;12.35;;;8.80;99.90;;;9.32;100.00;97932.25;10306265;28;20231;-68
2024/03/14 01:44:21;;;;;;;14.75;13.10;;;8.70;99.90;;;9.34;100.00;97933.22;10273200;28;20591;-67
2024/03/14 01:49:24;;;;;;;14.60;11.20;;;8.70;99.90;;;9.31;100.00;97930.47;10289037;28;20230;-67
2024/03/14 01:54:28;;;;;;;13.20;11.02;;;8.60;99.90;;;9.23;100.00;97921.47;10290213;28;20613;-67
2024/03/14 01:59:31;;;;;;;18.10;12.38;;;8.60;99.90;;;9.22;100.00;97919.72;10307152;28;20234;-67
2024/03/14 02:04:36;;;;;;;17.60;13.23;;;8.50;99.90;;;9.10;100.00;97913.81;10271727;28;20223;-67
2024/03/14 02:09:39;;;;;;;18.90;14.48;;;8.50;99.90;;;9.14;100.00;97910.69;10304225;28;20242;-69
2024/03/14 02:14:43;;;;;;;18.83;14.45;;;8.50;99.90;;;9.15;100.00;97913.31;10301003;28;20231;-68
2024/03/14 02:19:46;;;;;;;19.55;14.27;;;8.60;99.90;;;9.24;100.00;97905.38;10272906;28;20233;-67
2024/03/14 02:24:51;;;;;;;30.73;14.77;;;8.60;99.90;;;9.21;100.00;97897.53;10273090;28;20250;-69
2024/03/14 02:29:54;;;;;;;36.08;14.25;;;8.60;99.90;;;9.20;100.00;97905.97;10289749;28;20361;-68
2024/03/14 02:34:58;;;;;;;20.73;14.07;;;8.50;99.90;;;9.15;100.00;97894.59;10273706;28;20222;-67
2024/03/14 02:40:01;;;;;;;29.65;13.95;;;8.50;99.90;;;9.12;100.00;97896.94;10288168;28;20320;-67
2024/03/14 02:45:06;;;;;;;25.27;13.90;;;8.50;99.90;;;9.10;100.00;97896.88;10287549;28;20746;-66
2024/03/14 02:50:09;;;;;;;26.80;13.90;;;8.50;99.90;;;9.08;100.00;97900.09;10289937;28;21900;-68
2024/03/14 02:55:13;;;;;;;28.23;13.70;;;8.50;99.90;;;9.13;100.00;97893.59;10285767;28;20234;-67
2024/03/14 03:00:19;;;;;;;20.08;12.75;;;8.40;99.90;;;9.11;100.00;97887.56;10286345;28;20370;-66
2024/03/14 03:05:22;;;;;;;30.33;13.93;;;8.50;99.90;;;9.10;100.00;97895.97;10271033;28;20258;-66
2024/03/14 03:10:26;;;;;;;28.65;12.77;;;8.40;99.90;;;9.02;100.00;97891.28;10284144;28;20223;-69
2024/03/14 03:15:30;;;;;;;15.13;11.98;;;8.40;99.90;;;9.03;100.00;97895.59;10285584;28;20267;-68
2024/03/14 03:20:33;;;;;;;26.00;14.00;;;8.40;99.90;;;8.99;100.00;97897.88;10284746;28;21827;-66
2024/03/14 03:25:38;;;;;;;31.98;14.95;;;8.40;99.90;;;8.98;100.00;97889.31;10268298;28;20234;-66
2024/03/14 03:30:42;;;;;;;18.45;13.75;;;8.40;99.90;;;8.91;100.00;97888.84;10267811;28;20313;-66
2024/03/14 03:35:46;;;;;;;18.15;13.80;;;8.30;99.90;;;8.91;100.00;97887.16;10287263;28;20242;-66
2024/03/14 03:40:49;;;;;;;14.57;11.75;;;8.30;99.90;;;8.91;100.00;97882.06;10281068;28;20867;-68
2024/03/14 03:45:53;;;;;;;13.65;11.25;;;8.20;99.90;;;8.89;100.00;97886.19;10303430;28;20321;-66
2024/03/14 03:50:57;;;;;;;13.13;10.80;;;8.20;99.90;;;8.89;100.00;97880.19;10272096;28;20231;-68
2024/03/14 03:56:01;;;;;;;13.65;10.95;;;8.20;99.90;;;8.94;100.00;97881.38;10286666;28;20305;-67
2024/03/14 04:01:10;;;;;;;12.05;10.75;;;8.20;99.90;;;8.82;100.00;97886.59;10286532;28;20247;-66
2024/03/14 04:06:15;;;;;;;12.30;10.75;;;8.20;99.90;;;8.85;100.00;97886.78;10283003;28;20715;-69
2024/03/14 04:11:19;;;;;;;15.98;12.05;;;8.20;99.90;;;8.87;100.00;97885.22;10270398;28;20347;-66
2024/03/14 04:16:23;;;;;;;13.98;12.10;;;8.20;99.90;;;8.85;100.00;97884.22;10293466;28;20242;-67
2024/03/14 04:21:27;;;;;;;14.05;12.20;;;8.20;99.90;;;8.80;100.00;97883.03;10297474;28;20234;-66
2024/03/14 04:26:30;;;;;;;15.73;12.57;;;8.20;99.90;;;8.79;100.00;97888.94;10292599;28;20235;-66
2024/03/14 04:31:33;;;;;;;16.10;12.35;;;8.20;99.90;;;8.74;100.00;97895.41;10309216;28;20231;-66
2024/03/14 04:36:37;;;;;;;16.00;11.75;;;8.10;99.90;;;8.67;100.00;97896.69;10292240;28;20231;-66
2024/03/14 04:41:41;;;;;;;16.83;12.20;;;8.00;99.90;;;8.67;100.00;97895.78;10294378;28;20227;-66
2024/03/14 04:46:44;;;;;;;13.05;10.70;;;8.00;99.90;;;8.59;100.00;97902.06;10274254;28;20241;-66
2024/03/14 04:51:47;;;;;;;12.15;10.40;;;7.90;99.90;;;8.52;100.00;97903.31;10292201;28;20334;-66
2024/03/14 04:56:50;;;;;;;13.68;10.50;;;7.90;99.90;;;8.50;100.00;97908.31;10305284;28;20330;-66
2024/03/14 05:01:54;;;;;;;11.30;10.10;;;7.80;99.90;;;8.45;100.00;97902.03;10285613;28;20231;-66
2024/03/14 05:06:57;;;;;;;12.85;10.38;;;7.70;99.90;;;8.39;100.00;97908.38;10283418;28;20230;-66
2024/03/14 05:12:01;;;;;;;13.30;10.13;;;7.70;99.90;;;8.38;100.00;97902.34;10292348;28;20227;-67
2024/03/14 05:17:04;;;;;;;12.65;10.73;;;7.60;99.90;;;8.23;100.00;97901.34;10266177;28;20231;-66
2024/03/14 05:22:07;;;;;;;12.18;10.40;;;7.60;99.90;;;8.21;100.00;97905.44;10266987;28;20231;-66
2024/03/14 05:27:12;;;;;;;14.75;10.98;;;7.50;99.90;;;8.19;100.00;97907.03;10261657;28;20441;-67
2024/03/14 05:32:21;;;;;;;14.80;11.25;;;7.50;99.90;;;8.16;100.00;97901.75;10302037;28;20381;-66
2024/03/14 05:37:25;;;;;;;13.20;11.82;;;7.50;99.90;;;8.15;100.00;97898.28;10288108;28;20243;-66
2024/03/14 05:42:28;;;;;;;16.80;13.10;;;7.40;99.90;;;8.07;100.00;97900.34;10259868;28;20786;-66
2024/03/14 05:47:33;;;;;;;13.43;12.02;;;7.40;99.90;;;8.12;100.00;97893.00;10284085;28;20223;-67
2024/03/14 05:52:37;;;;;;;16.85;14.25;;;7.40;99.90;;;8.03;100.00;97889.84;10282154;28;20336;-66
2024/03/14 05:57:43;;;;;;;19.65;14.95;;;7.40;99.90;;;7.97;100.00;97880.13;10288829;28;20609;-66
2024/03/14 06:02:46;;;;;;;16.90;15.02;;;7.30;99.90;;;8.07;100.00;97879.09;10276977;28;20293;-66
2024/03/14 06:07:50;;;;;;;14.43;12.93;;;7.40;99.90;;;8.12;100.00;97882.81;10265478;28;20239;-66
2024/03/14 06:12:54;;;;;;;15.57;13.98;;;7.40;99.90;;;7.92;100.00;97888.22;10292771;28;20356;-66
2024/03/14 06:17:57;;;;;;;15.18;13.77;;;7.30;99.90;;;7.93;100.00;97890.88;10276158;28;20242;-66
2024/03/14 06:23:00;;;;;;;14.75;13.25;;;7.30;99.90;;;8.07;100.00;97894.38;10264533;28;20710;-67
2024/03/14 06:28:06;;;;;;;15.75;14.15;;;7.40;99.90;;;8.08;100.00;97894.44;10293129;28;20521;-67
2024/03/14 06:33:09;;;;;;;15.00;13.40;;;7.40;99.90;;;8.09;100.00;97887.69;10273412;28;22228;-66
2024/03/14 06:38:14;;;;;;;13.90;12.50;;;7.40;99.90;;;8.24;100.00;97887.81;10264622;28;20756;-67
2024/03/14 06:43:17;;;;;;;13.93;12.52;;;7.50;99.90;;;8.28;100.00;97889.81;10274486;28;20612;-66
2024/03/14 06:48:21;;;;;;;13.30;12.00;;;7.60;99.90;;;8.36;100.00;97886.13;10273991;28;20242;-66
2024/03/14 06:53:24;;;;;;;12.25;11.05;;;7.70;99.90;;;8.45;100.00;97888.41;10262909;28;20238;-66
2024/03/14 06:58:28;;;;;;;12.70;11.60;;;7.70;99.90;;;8.48;100.00;97894.59;10277174;28;20713;-67
2024/03/14 07:03:31;;;;;;;13.27;11.80;;;7.80;99.90;;;8.50;100.00;97887.94;10278317;28;20744;-66
2024/03/14 07:08:35;;;;;;;12.13;10.93;;;7.80;99.90;;;8.61;100.00;97885.19;10310122;28;20611;-66
2024/03/14 07:13:38;;;;;;;12.25;11.10;;;7.90;99.90;;;8.72;100.00;97886.75;10289430;28;20388;-66
2024/03/14 07:18:41;;;;;;;12.30;11.10;;;8.00;99.90;;;8.69;100.00;97897.63;10272187;28;20310;-66
2024/03/14 07:23:47;;;;;;;12.52;11.32;;;8.00;99.90;;;8.74;100.00;97897.94;10279670;28;20301;-66
2024/03/14 07:28:53;;;;;;;12.23;11.10;;;8.10;99.90;;;8.81;100.00;97900.09;10276526;28;20233;-66
2024/03/14 07:33:58;;;;;;;12.50;11.32;;;8.20;99.90;;;8.92;100.00;97893.13;10280191;28;20242;-66
2024/03/14 07:39:02;;;;;;;12.63;11.43;;;8.20;99.90;;;9.02;100.00;97890.41;10265784;28;20245;-66
2024/03/14 07:44:06;;;;;;;11.65;10.55;;;8.30;99.90;;;9.20;100.00;97890.66;10276784;28;20227;-66
2024/03/14 07:49:28;;;;;;;13.13;11.82;;;8.50;99.90;;;9.35;100.00;97906.91;10284713;28;20231;-66
2024/03/14 07:54:32;;;;;;;12.07;11.07;;;8.70;99.90;;;9.34;100.00;97905.16;10310996;28;20259;-67
2024/03/14 07:59:35;;;;;;;11.07;10.07;;;8.60;99.90;;;9.46;100.00;97905.91;10305771;28;20716;-67
2024/03/14 08:04:39;;;;;;;10.75;9.75;;;8.70;99.90;;;9.61;100.00;97912.75;10301327;28;20242;-66
2024/03/14 08:09:42;;;;;;;11.40;10.40;;;8.80;99.90;;;9.77;100.00;97909.47;10287793;28;20664;-66
2024/03/14 08:14:46;;;;;;;10.32;9.43;;;8.90;99.90;;;9.86;100.00;97912.59;10313455;28;20230;-67
2024/03/14 08:19:54;;;;;;;10.65;9.65;;;8.90;99.90;;;9.93;100.00;97902.84;10292130;28;20223;-66
2024/03/14 08:24:57;;;;;;;12.55;11.35;;;9.00;99.90;;;10.00;100.00;97909.19;10277657;28;20287;-67
2024/03/14 08:30:00;;;;;;;11.43;10.43;;;9.20;99.90;;;10.37;100.00;97904.63;10264947;28;20708;-66
2024/03/14 08:35:05;;;;;;;11.10;10.20;;;9.40;99.90;;;10.55;100.00;97909.91;10284025;28;20227;-67
2024/03/14 08:40:09;;;;;;;11.05;10.15;;;9.60;99.90;;;10.57;100.00;97910.00;10286706;28;20231;-66
2024/03/14 08:45:14;;;;;;;11.13;10.13;;;9.70;99.90;;;10.75;100.00;97905.94;10284012;28;20610;-66
2024/03/14 08:50:21;;;;;;;10.68;9.77;;;9.90;99.90;;;10.91;100.00;97896.59;10302449;28;20282;-66
2024/03/14 08:55:33;;;;;;;10.68;9.77;;;10.10;99.90;;;11.17;100.00;97893.81;10293522;28;20318;-66
2024/03/14 09:00:37;;;;;;;10.10;9.30;;;10.30;99.90;;;11.27;100.00;97901.19;10265526;28;20292;-66
2024/03/14 09:05:41;;;;;;;10.32;9.43;;;10.50;99.90;;;11.47;100.00;97891.16;10282587;28;20238;-66
2024/03/14 09:10:45;;;;;;;10.57;9.77;;;10.70;99.90;;;11.96;100.00;97888.69;10302886;28;20243;-67
2024/03/14 09:15:50;;;;;;;10.32;9.32;;;11.20;99.90;;;12.12;100.00;97888.66;10278120;28;20262;-66
2024/03/14 09:20:55;;;;;;;10.60;9.70;;;11.30;99.90;;;11.97;100.00;97887.00;10285235;28;20255;-67
2024/03/14 09:26:02;;;;;;;10.15;9.25;;;11.40;99.90;;;12.52;100.00;97882.09;10302515;28;21748;-66
2024/03/14 09:31:08;;;;;;;9.63;8.82;;;11.80;99.90;;;13.07;100.00;97877.94;10290085;28;20218;-66
2024/03/14 09:36:13;;;;;;;9.77;8.85;;;12.40;99.90;;;13.17;96.01;97866.44;10282292;28;20241;-66
2024/03/14 09:41:17;;;;;;;8.85;8.15;;;12.60;99.90;;;13.55;100.00;97871.63;10297538;28;20230;-67
2024/03/14 09:46:25;;;;;;;8.00;7.40;;;12.80;99.90;;;13.66;94.29;97865.28;10314325;28;20309;-66
2024/03/14 09:51:30;;;;;;;6.70;6.18;;;13.00;99.90;;;13.68;91.44;97858.53;10299903;28;20230;-65
2024/03/14 09:56:34;;;;;;;6.95;6.40;;;13.00;99.90;;;13.75;94.26;97855.41;10297674;28;20227;-66
2024/03/14 10:01:38;;;;;;;7.93;7.22;;;13.00;99.90;;;13.97;92.25;97842.72;10297001;28;20313;-67
2024/03/14 10:06:41;;;;;;;6.20;5.80;;;13.30;99.90;;;14.04;94.28;97828.41;10305535;28;20235;-68
2024/03/14 10:11:45;;;;;;;6.05;5.55;;;13.30;99.90;;;14.24;96.19;97826.69;10268019;28;20231;-66
2024/03/14 10:16:50;;;;;;;5.43;5.03;;;13.60;99.90;;;14.40;96.31;97829.09;10274164;28;20330;-70
2024/03/14 10:21:54;;;;;;;5.70;5.20;;;13.60;99.90;;;14.58;94.53;97829.00;10283476;28;20219;-67
2024/03/14 10:26:58;;;;;;;4.57;4.25;;;13.80;99.90;;;14.73;89.36;97823.59;10293282;28;20656;-66
2024/03/14 10:32:04;;;;;;;4.72;4.43;;;14.00;99.90;;;15.01;89.60;97824.69;10284146;28;20226;-67
2024/03/14 10:37:08;;;;;;;4.40;4.00;;;14.30;99.90;;;15.18;85.09;97817.63;10284920;28;20837;-67
2024/03/14 10:42:12;;;;;;;3.90;3.58;;;14.30;99.90;;;15.35;88.41;97815.69;10262437;28;20231;-66
2024/03/14 10:47:15;;;;;;;3.65;3.28;;;14.50;99.90;;;15.73;83.69;97814.53;10264606;28;20293;-70
2024/03/14 10:52:21;;;;;;;3.30;3.10;;;14.80;99.90;;;15.80;81.80;97806.22;10271835;28;20238;-67
2024/03/14 10:57:24;;;;;;;3.30;3.10;;;14.90;99.90;;;15.97;82.47;97814.56;10263046;28;20235;-66
2024/03/14 11:02:29;;;;;;;3.78;2.78;;;15.10;99.90;;;16.07;81.63;97806.31;10265246;28;20247;-68
2024/03/14 11:07:32;;;;;;;3.55;2.92;;;15.20;99.90;;;16.10;81.49;97803.81;10261692;28;20250;-67
2024/03/14 11:12:35;;;;;;;2.90;2.70;;;15.30;99.90;;;16.28;81.60;97795.88;10280530;28;20227;-66
2024/03/14 11:17:40;;;;;;;2.50;2.40;;;15.50;99.90;;;16.57;72.67;97793.38;10281189;28;20322;-68
2024/03/14 11:22:45;;;;;;;1.90;1.67;;;15.70;99.90;;;16.48;73.81;97798.19;10262039;28;20234;-68
2024/03/14 11:27:48;;;;;;;1.90;1.67;;;15.60;99.90;;;16.36;71.12;97781.50;10287442;28;20235;-67
2024/03/14 11:32:55;;;;;;;1.70;1.60;;;15.50;99.90;;;16.53;68.88;97779.47;10293864;28;20648;-69
2024/03/14 11:37:59;;;;;;;1.60;1.50;;;15.60;99.90;;;16.25;67.32;97774.22;10289516;28;20267;-67
2024/03/14 11:43:04;;;;;;;1.83;1.73;;;15.60;99.90;;;16.24;69.28;97772.47;10302096;28;20935;-67
2024/03/14 11:48:08;;;;;;;1.80;1.70;;;15.60;99.90;;;16.62;68.24;97766.84;10279126;28;20750;-70
2024/03/14 11:53:12;;;;;;;1.90;1.80;;;15.80;99.90;;;16.41;66.88;97758.44;10264331;28;20231;-67
2024/03/14 11:58:16;;;;;;;2.40;2.28;;;15.90;99.90;;;16.44;65.49;97748.22;10276201;28;20231;-68
2024/03/14 12:03:22;;;;;;;2.15;2.05;;;15.90;99.90;;;16.41;67.30;97743.81;10287899;28;20611;-69
2024/03/14 12:08:26;;;;;;;2.38;2.28;;;15.80;99.90;;;16.49;63.48;97741.50;10276974;28;20239;-69
2024/03/14 12:13:29;;;;;;;2.10;2.00;;;16.00;99.90;;;16.52;66.67;97733.84;10260223;28;20662;-66
2024/03/14 12:18:33;;;;;;;2.33;2.13;;;15.90;99.90;;;16.82;65.04;97717.59;10295528;28;20733;-69
2024/03/14 12:23:36;;;;;;;1.80;1.70;;;16.10;99.90;;;16.81;62.42;97724.47;10293153;28;20223;-66
2024/03/14 12:28:41;;;;;;;2.25;2.05;;;16.20;99.90;;;16.81;61.75;97710.69;10257669;28;20361;-69
2024/03/14 12:33:46;;;;;;;2.00;1.80;;;16.30;99.90;;;17.04;62.85;97704.47;10259010;28;20235;-67
2024/03/14 12:38:50;;;;;;;2.15;2.05;;;16.40;99.90;;;17.00;60.50;97692.31;10296371;28;20230;-69
2024/03/14 12:43:54;;;;;;;2.42;2.28;;;16.60;99.90;;;16.86;62.16;97686.75;10267651;28;20220;-67
2024/03/14 12:48:59;;;;;;;1.95;1.85;;;16.30;99.90;;;16.77;60.79;97690.75;10283066;28;20227;-66
2024/03/14 12:54:03;;;;;;;1.77;1.67;;;16.20;99.90;;;16.68;62.36;97678.41;10268168;28;20218;-69
2024/03/14 12:59:08;;;;;;;2.03;1.92;;;16.20;99.90;;;16.93;60.03;97669.72;10291535;28;20246;-67
2024/03/14 13:04:18;;;;;;;2.30;2.10;;;16.40;99.90;;;16.99;62.24;97654.41;10285770;28;20234;-67
2024/03/14 13:09:24;;;;;;;1.80;1.70;;;16.40;99.90;;;17.16;58.90;97657.47;10282640;28;20336;-68
2024/03/14 13:14:28;;;;;;;2.22;2.13;;;16.50;99.90;;;17.03;60.03;97651.09;10293560;28;20230;-67
2024/03/14 13:19:32;;;;;;;2.60;2.40;;;16.40;99.90;;;17.16;57.99;97644.56;10284874;28;20342;-71
2024/03/14 13:24:35;;;;;;;3.05;2.85;;;16.50;99.90;;;17.40;59.00;97636.59;10279178;28;20358;-67
2024/03/14 13:29:38;;;;;;;3.88;3.58;;;16.70;99.90;;;17.50;57.85;97633.41;10296626;28;20362;-69
2024/03/14 13:34:43;;;;;;;2.58;2.38;;;16.90;99.90;;;17.01;59.19;97626.94;10262980;28;20330;-68
2024/03/14 13:39:47;;;;;;;2.90;2.70;;;16.50;99.90;;;17.00;61.01;97626.91;10283669;28;20234;-67
2024/03/14 13:44:51;;;;;;;2.97;2.70;;;16.40;99.90;;;17.46;56.42;97628.16;10282240;28;20265;-69
2024/03/14 13:49:58;;;;;;;2.47;2.38;;;16.90;99.90;;;17.11;59.65;97618.63;10278531;28;20240;-68
2024/03/14 13:55:05;;;;;;;2.47;2.28;;;16.60;99.90;;;17.04;58.18;97616.69;10279924;28;20237;-66
2024/03/14 14:00:11;;;;;;;2.63;2.42;;;16.60;99.90;;;17.61;57.19;97615.59;10280595;28;20234;-69
2024/03/14 14:05:20;;;;;;;2.17;2.08;;;16.90;99.90;;;17.26;57.49;97614.69;10262199;28;20223;-69
2024/03/14 14:10:24;;;;;;;2.25;2.15;;;16.70;99.90;;;17.08;57.78;97590.13;10286427;28;20227;-66
2024/03/14 14:15:29;;;;;;;1.85;1.75;;;16.50;99.90;;;17.05;59.03;97579.72;10264308;28;20230;-69
2024/03/14 14:20:32;;;;;;;2.17;1.73;;;16.50;99.90;;;17.15;59.59;97573.06;10265979;28;20721;-69
2024/03/14 14:25:36;;;;;;;1.60;1.50;;;16.70;99.90;;;17.55;59.71;97574.09;10281461;28;20306;-68
2024/03/14 14:30:41;;;;;;;1.90;1.80;;;17.00;99.90;;;17.69;58.42;97571.88;10263865;28;20223;-68
2024/03/14 14:35:45;;;;;;;2.35;1.65;;;17.20;99.90;;;17.80;57.72;97562.69;10277492;28;20841;-66
2024/03/14 14:40:49;;;;;;;1.42;1.42;;;17.20;99.90;;;17.73;59.17;97553.84;10279710;28;20602;-66
2024/03/14 14:45:54;;;;;;;1.70;1.60;;;17.10;99.90;;;17.99;56.72;97551.91;10293998;28;20405;-66
2024/03/14 14:51:00;;;;;;;1.85;1.75;;;17.40;99.90;;;17.92;56.02;97544.88;10291207;28;20268;-67
2024/03/14 14:56:14;;;;;;;1.55;1.55;;;17.40;99.90;;;17.66;58.27;97540.78;10294601;28;20604;-67
2024/03/14 15:01:19;;;;;;;1.80;1.70;;;17.10;99.90;;;17.51;59.09;97533.50;10292115;28;20317;-69
2024/03/14 15:06:22;;;;;;;1.58;1.48;;;17.00;99.90;;;17.72;58.58;97536.63;10306547;28;20223;-67
2024/03/14 15:11:25;;;;;;;1.92;1.80;;;17.10;99.90;;;17.77;58.75;97536.72;10292643;28;20729;-67
2024/03/14 15:16:29;;;;;;;2.78;1.73;;;17.00;99.90;;;17.87;57.57;97541.28;10293593;28;20222;-69
2024/03/14 15:21:33;;;;;;;2.33;1.60;;;17.10;99.90;;;17.84;57.91;97541.22;10291402;28;20230;-67
2024/03/14 15:26:37;;;;;;;1.70;1.60;;;17.30;99.90;;;17.86;57.31;97539.56;10290718;28;20231;-67
2024/03/14 15:31:40;;;;;;;1.90;1.80;;;17.30;99.90;;;17.66;58.52;97543.34;10272081;28;20237;-67
2024/03/14 15:36:45;;;;;;;1.67;1.58;;;17.00;99.90;;;17.90;57.18;97525.84;10256227;28;20276;-68
2024/03/14 15:41:49;;;;;;;1.63;1.52;;;17.20;99.90;;;17.75;57.21;97522.88;10273845;23;20434;-67
2024/03/14 15:46:52;;;;;;;1.60;1.50;;;17.10;99.90;;;17.69;57.38;97515.00;10310324;28;20618;-66
2024/03/14 15:51:56;;;;;;;1.20;1.20;;;17.00;99.90;;;17.58;56.74;97512.16;10284049;28;20226;-67
2024/03/14 15:57:00;;;;;;;1.83;1.42;;;17.00;99.90;;;17.13;59.17;97511.88;10288860;28;20238;-66
2024/03/14 16:02:05;;;;;;;1.50;1.40;;;16.60;99.90;;;17.20;58.99;97522.41;10302097;28;20238;-67
2024/03/14 16:07:09;;;;;;;1.60;1.50;;;16.70;99.90;;;17.16;58.48;97517.13;10289688;28;20245;-70
2024/03/14 16:12:13;;;;;;;2.10;1.52;;;16.50;99.90;;;17.06;58.67;97522.06;10298559;28;20588;-68
2024/03/14 16:17:17;;;;;;;1.75;1.45;;;16.40;99.90;;;17.03;58.81;97516.81;10309335;28;20368;-67
2024/03/14 16:22:21;;;;;;;1.60;1.50;;;16.40;99.90;;;17.01;58.43;97526.22;10324996;28;20737;-67
2024/03/14 16:27:24;;;;;;;1.48;1.30;;;16.30;99.90;;;16.84;58.76;97509.41;10322396;28;20554;-67
2024/03/14 16:32:27;;;;;;;1.50;1.40;;;16.20;99.90;;;16.76;58.71;97518.63;10323027;28;21810;-67
2024/03/14 16:37:31;;;;;;;1.30;1.30;;;16.20;99.90;;;16.72;58.29;97504.75;10317544;28;20241;-67
2024/03/14 16:42:35;;;;;;;1.23;1.23;;;16.20;99.90;;;16.42;60.58;97502.19;10301607;28;20305;-67
2024/03/14 16:47:40;;;;;;;1.27;1.27;;;15.70;99.90;;;16.52;59.77;97486.16;10301719;28;20280;-67
2024/03/14 16:52:44;;;;;;;1.50;1.40;;;15.80;99.90;;;16.42;59.38;97485.03;10318755;28;20365;-67
2024/03/14 16:57:48;;;;;;;1.80;1.70;;;15.70;99.90;;;16.40;59.99;97488.41;10316498;28;20245;-67
2024/03/14 17:02:52;;;;;;;2.42;2.33;;;15.60;99.90;;;16.05;61.99;97498.53;10316944;28;20777;-66
2024/03/14 17:07:55;;;;;;;2.10;1.90;;;15.40;99.90;;;15.94;62.49;97494.81;10300702;28;20226;-67
2024/03/14 17:12:59;;;;;;;1.77;1.60;;;15.20;99.90;;;15.84;63.13;97488.47;10316254;28;20257;-67
2024/03/14 17:18:02;;;;;;;1.83;1.80;;;15.10;99.90;;;15.67;64.48;97484.47;10316705;28;20249;-67
2024/03/14 17:23:11;;;;;;;1.90;1.80;;;14.90;99.90;;;15.41;65.35;97501.69;10299175;28;20609;-67
2024/03/14 17:28:17;;;;;;;5.97;5.47;;;14.70;99.90;;;15.10;67.50;97487.81;10301548;28;20231;-67
2024/03/14 17:33:20;;;;;;;2.80;2.70;;;14.50;99.90;;;14.95;69.33;97497.59;10302111;28;20250;-67
2024/03/14 17:38:24;;;;;;;2.70;2.50;;;14.20;99.90;;;14.69;71.86;97482.13;10315964;28;20238;-66
2024/03/14 17:43:28;;;;;;;2.92;2.50;;;13.90;99.90;;;14.38;74.74;97483.59;10313402;28;20803;-66
2024/03/14 17:48:32;;;;;;;2.50;2.30;;;13.60;99.90;;;14.06;76.14;97489.25;10313706;28;20765;-67
2024/03/14 17:53:38;;;;;;;2.67;2.47;;;13.30;99.90;;;13.82;78.38;97502.94;10317629;28;20230;-66
2024/03/14 17:58:42;;;;;;;2.05;1.95;;;13.00;99.90;;;13.62;78.79;97503.81;10318046;28;20226;-66
2024/03/14 18:03:45;;;;;;;2.55;2.35;;;12.80;99.90;;;13.42;80.77;97515.88;10303690;28;20561;-66
2024/03/14 18:08:48;;;;;;;2.28;2.10;;;12.60;99.90;;;13.18;81.90;97515.72;10313344;28;20546;-66
2024/03/14 18:13:52;;;;;;;4.00;3.80;;;12.30;99.90;;;13.05;83.83;97519.47;10325313;28;20249;-66
2024/03/14 18:18:55;;;;;;;5.93;5.35;;;12.20;99.90;;;12.91;84.11;97515.47;10312514;28;20226;-66
2024/03/14 18:24:00;;;;;;;3.92;3.63;;;12.10;99.90;;;12.78;85.18;97517.47;10312357;28;20226;-66
2024/03/14 18:29:04;;;;;;;3.03;2.83;;;12.00;99.90;;;12.75;85.92;97519.06;10312379;28;20222;-66
2024/03/14 18:34:08;;;;;;;2.60;2.40;;;11.90;99.90;;;12.53;87.58;97519.78;10294747;28;20245;-66
2024/03/14 18:39:17;;;;;;;2.55;2.35;;;11.80;99.90;;;12.31;89.10;97526.56;10297166;28;20238;-67
2024/03/14 18:44:26;;;;;;;3.05;2.78;;;11.60;99.90;;;12.13;90.90;97513.81;10292377;28;20463;-67
2024/03/14 18:49:29;;;;;;;5.75;5.45;;;11.40;99.90;;;12.08;91.01;97514.41;10314743;28;20659;-66
2024/03/14 18:54:33;;;;;;;6.10;5.60;;;11.30;99.90;;;11.91;91.78;97513.63;10312837;28;20506;-66
2024/03/14 18:59:47;;;;;;;4.45;4.15;;;11.20;99.90;;;11.75;93.81;97536.72;10313385;28;20874;-67
2024/03/14 19:04:51;;;;;;;3.63;3.35;;;11.00;99.90;;;11.64;94.40;97529.41;10310824;28;20226;-66
2024/03/14 19:09:55;;;;;;;3.75;3.33;;;10.90;99.90;;;11.48;94.86;97522.69;10312182;28;20230;-66
2024/03/14 19:14:58;;;;;;;7.28;4.38;;;10.70;99.90;;;11.39;95.58;97529.03;10295336;28;20241;-66
2024/03/14 19:20:06;;;;;;;21.42;14.48;;;10.60;99.90;;;11.24;96.95;97526.59;10313294;28;20615;-67
2024/03/14 19:25:10;;;;;;;36.35;22.55;;;10.50;99.90;;;11.18;97.87;97527.19;10302231;28;20249;-67
2024/03/14 19:30:14;;;;;;;14.27;10.52;;;10.40;99.90;;;11.01;98.33;97522.91;10294753;28;20236;-67
2024/03/14 19:35:19;;;;;;;17.05;11.27;;;10.20;99.90;;;10.90;98.81;97529.16;10310664;28;20262;-66
2024/03/14 19:40:23;;;;;;;9.63;7.22;;;10.10;99.90;;;10.77;99.22;97526.00;10295450;28;20245;-68
2024/03/14 19:45:27;;;;;;;5.13;4.43;;;10.00;99.90;;;10.63;99.20;97519.31;10316044;28;20245;-67
2024/03/14 19:50:30;;;;;;;3.28;3.08;;;9.90;99.90;;;10.53;100.00;97520.53;10315021;28;20227;-66
2024/03/14 19:55:35;;;;;;;5.43;4.60;;;9.90;99.90;;;10.56;100.00;97519.81;10317192;28;20333;-67
2024/03/14 20:00:38;;;;;;;4.47;3.83;;;9.90;99.90;;;10.54;100.00;97521.41;10317695;28;20218;-66
2024/03/14 20:05:43;;;;;;;5.25;4.63;;;9.80;99.90;;;10.46;100.00;97515.00;10320140;28;20280;-67
2024/03/14 20:10:46;;;;;;;4.65;4.18;;;9.70;99.90;;;10.44;100.00;97514.91;10310304;28;20293;-68
2024/03/14 20:15:50;;;;;;;3.60;3.30;;;9.60;99.90;;;10.29;100.00;97530.34;10305558;28;20242;-67
2024/03/14 20:20:53;;;;;;;3.13;2.92;;;9.50;99.90;;;10.18;100.00;97533.97;10316101;28;20222;-66
2024/03/14 20:25:57;;;;;;;5.85;5.32;;;9.40;99.90;;;10.08;100.00;97536.84;10319943;28;20233;-67
2024/03/14 20:31:01;;;;;;;5.65;5.15;;;9.30;99.90;;;9.92;100.00;97541.09;10316731;28;20735;-67
2024/03/14 20:36:07;;;;;;;4.20;3.90;;;9.20;99.90;;;9.88;100.00;97534.09;10320350;28;20241;-67
2024/03/14 20:41:11;;;;;;;4.10;3.70;;;9.10;99.90;;;9.68;100.00;97534.66;10306254;28;20681;-68
2024/03/14 20:46:18;;;;;;;4.50;4.10;;;9.00;99.90;;;9.65;100.00;97540.47;10314330;28;20214;-68
2024/03/14 20:51:23;;;;;;;4.35;3.95;;;8.90;99.90;;;9.59;100.00;97539.28;10325094;28;20227;-66
2024/03/14 20:56:28;;;;;;;3.53;3.28;;;8.90;99.90;;;9.60;100.00;97548.69;10325509;28;20705;-67
2024/03/14 21:01:31;;;;;;;3.75;3.50;;;8.80;99.90;;;9.55;100.00;97547.53;10325227;28;20222;-67